createdAt,value
2022-12-17T00:00:49.476Z,15.30
2022-12-17T00:03:35.919Z,15.70
2022-12-17T00:06:22.345Z,14.57
2022-12-17T00:09:08.450Z,13.82
2022-12-17T00:11:54.621Z,13.43
2022-12-17T00:14:42.074Z,13.25
2022-12-17T00:17:28.173Z,13.05
2022-12-17T00:20:14.248Z,13.93
2022-12-17T00:23:00.144Z,13.07
2022-12-17T00:25:46.081Z,13.52
2022-12-17T00:28:32.939Z,13.93
2022-12-17T00:31:18.903Z,13.02
2022-12-17T00:34:05.757Z,13.90
2022-12-17T00:36:51.617Z,14.30
2022-12-17T00:39:37.670Z,13.32
2022-12-17T00:42:23.578Z,14.48
2022-12-17T00:45:09.414Z,14.98
2022-12-17T00:47:55.725Z,13.50
2022-12-17T00:50:42.844Z,13.80
2022-12-17T00:53:29.091Z,14.57
2022-12-17T00:56:15.190Z,13.15
2022-12-17T00:59:01.024Z,13.57
2022-12-17T01:01:47.134Z,13.35
2022-12-17T01:04:32.848Z,14.75
2022-12-17T01:07:18.795Z,14.07
2022-12-17T01:10:04.911Z,13.45
2022-12-17T01:12:50.985Z,14.60
2022-12-17T01:15:37.917Z,13.15
2022-12-17T01:18:24.112Z,14.20
2022-12-17T01:21:15.401Z,13.43
2022-12-17T01:24:01.360Z,14.05
2022-12-17T01:26:47.194Z,13.73
2022-12-17T01:29:33.233Z,13.63
2022-12-17T01:32:19.102Z,13.82
2022-12-17T01:35:05.066Z,13.75
2022-12-17T01:37:51.056Z,13.73
2022-12-17T01:40:36.878Z,13.65
2022-12-17T01:43:22.862Z,14.07
2022-12-17T01:46:09.025Z,14.50
2022-12-17T01:48:59.509Z,14.13
2022-12-17T01:51:45.904Z,13.73
2022-12-17T01:54:32.050Z,13.35
2022-12-17T01:57:17.904Z,13.38
2022-12-17T02:00:12.522Z,14.18
2022-12-17T02:02:58.594Z,13.33
2022-12-17T02:05:49.204Z,13.32
2022-12-17T02:08:44.017Z,13.07
2022-12-17T02:11:36.937Z,13.07
2022-12-17T02:14:28.494Z,13.40
2022-12-17T02:17:18.960Z,13.48
2022-12-17T02:20:23.541Z,12.75
2022-12-17T02:23:15.707Z,13.32
2022-12-17T02:26:05.578Z,13.38
2022-12-17T02:28:52.045Z,14.10
2022-12-17T02:31:38.641Z,13.90
2022-12-17T02:34:24.454Z,14.48
2022-12-17T02:37:10.343Z,12.52
2022-12-17T02:39:56.363Z,13.55
2022-12-17T02:42:43.957Z,13.82
2022-12-17T02:45:30.490Z,14.35
2022-12-17T02:48:16.638Z,14.18
2022-12-17T02:51:02.659Z,13.75
2022-12-17T02:53:59.286Z,13.65
2022-12-17T02:56:45.236Z,14.35
2022-12-17T02:59:35.636Z,13.60
2022-12-17T03:02:21.772Z,12.75
2022-12-17T03:05:27.983Z,13.93
2022-12-17T03:08:13.447Z,14.68
2022-12-17T03:10:59.305Z,14.77
2022-12-17T03:13:46.324Z,13.13
2022-12-17T03:16:37.749Z,14.02
2022-12-17T03:19:24.072Z,13.75
2022-12-17T03:22:09.844Z,13.75
2022-12-17T03:24:55.701Z,13.27
2022-12-17T03:27:41.645Z,14.27
2022-12-17T03:30:27.566Z,14.45
2022-12-17T03:33:14.070Z,13.85
2022-12-17T03:35:59.998Z,14.38
2022-12-17T03:38:46.025Z,14.32
2022-12-17T03:41:32.031Z,13.82
2022-12-17T03:44:18.025Z,13.57
2022-12-17T03:47:04.114Z,14.02
2022-12-17T03:49:50.108Z,14.77
2022-12-17T03:52:35.964Z,14.40
2022-12-17T03:55:21.982Z,14.38
2022-12-17T03:58:07.861Z,14.00
2022-12-17T04:00:53.847Z,14.98
2022-12-17T04:03:40.257Z,15.10
2022-12-17T04:06:26.504Z,14.05
2022-12-17T04:09:12.511Z,14.50
2022-12-17T04:11:58.520Z,13.68
2022-12-17T04:14:44.431Z,14.63
2022-12-17T04:17:30.444Z,14.20
2022-12-17T04:20:16.385Z,15.52
2022-12-17T04:23:02.395Z,13.90
2022-12-17T04:25:48.407Z,14.90
2022-12-17T04:28:34.281Z,14.25
2022-12-17T04:31:20.428Z,14.85
2022-12-17T04:34:06.102Z,13.60
2022-12-17T04:36:52.102Z,14.18
2022-12-17T04:39:38.716Z,13.98
2022-12-17T04:42:24.639Z,14.88
2022-12-17T04:45:10.630Z,14.85
2022-12-17T04:47:56.818Z,15.07
2022-12-17T04:50:42.730Z,15.07
2022-12-17T04:53:29.766Z,13.70
2022-12-17T04:56:15.745Z,14.50
2022-12-17T04:59:01.658Z,14.60
2022-12-17T05:01:47.616Z,14.98
2022-12-17T05:04:33.378Z,14.00
2022-12-17T05:07:19.300Z,13.98
2022-12-17T05:10:05.265Z,15.13
2022-12-17T05:12:51.232Z,14.68
2022-12-17T05:15:38.208Z,15.65
2022-12-17T05:18:25.192Z,13.88
2022-12-17T05:21:11.125Z,14.63
2022-12-17T05:23:57.121Z,14.90
2022-12-17T05:26:43.840Z,14.77
2022-12-17T05:29:29.829Z,15.35
2022-12-17T05:32:15.797Z,15.05
2022-12-17T05:35:01.669Z,14.90
2022-12-17T05:37:47.655Z,14.00
2022-12-17T05:40:33.590Z,15.18
2022-12-17T05:43:20.594Z,15.52
2022-12-17T05:46:06.719Z,16.15
2022-12-17T05:49:13.094Z,15.32
2022-12-17T05:51:58.926Z,15.32
2022-12-17T05:54:44.612Z,15.02
2022-12-17T05:57:30.663Z,15.68
2022-12-17T06:00:16.591Z,15.07
2022-12-17T06:03:02.625Z,15.55
2022-12-17T06:05:48.763Z,15.65
2022-12-17T06:08:34.651Z,14.50
2022-12-17T06:11:20.723Z,15.02
2022-12-17T06:14:06.840Z,14.80
2022-12-17T06:16:52.784Z,16.33
2022-12-17T06:19:38.729Z,16.98
2022-12-17T06:22:24.601Z,15.20
2022-12-17T06:25:10.534Z,15.30
2022-12-17T06:27:56.561Z,15.55
2022-12-17T06:30:42.491Z,14.27
2022-12-17T06:33:29.444Z,13.68
2022-12-17T06:36:21.937Z,14.07
2022-12-17T06:39:08.850Z,13.45
2022-12-17T06:42:02.107Z,13.77
2022-12-17T06:44:51.291Z,13.25
2022-12-17T06:47:37.666Z,14.25
2022-12-17T06:50:24.470Z,13.77
2022-12-17T06:53:23.373Z,14.48
2022-12-17T06:56:09.334Z,14.85
2022-12-17T06:58:55.497Z,14.52
2022-12-17T07:01:41.696Z,13.52
2022-12-17T07:04:27.712Z,14.57
2022-12-17T07:07:13.596Z,15.07
2022-12-17T07:09:59.992Z,15.18
2022-12-17T07:12:45.910Z,14.77
2022-12-17T07:15:31.932Z,14.75
2022-12-17T07:18:19.935Z,15.30
2022-12-17T07:21:06.001Z,13.98
2022-12-17T07:23:52.456Z,13.85
2022-12-17T07:26:38.436Z,13.07
2022-12-17T07:29:24.507Z,14.80
2022-12-17T07:32:10.473Z,15.00
2022-12-17T07:34:56.673Z,14.57
2022-12-17T07:37:42.761Z,13.57
2022-12-17T07:40:28.806Z,14.10
2022-12-17T07:43:14.785Z,14.55
2022-12-17T07:46:00.628Z,14.55
2022-12-17T07:48:46.494Z,14.65
2022-12-17T07:51:32.634Z,14.23
2022-12-17T07:54:18.705Z,14.82
2022-12-17T07:57:04.632Z,13.88
2022-12-17T07:59:50.641Z,15.10
2022-12-17T08:02:36.693Z,14.38
2022-12-17T08:05:22.859Z,13.20
2022-12-17T08:08:08.688Z,13.95
2022-12-17T08:10:54.700Z,13.27
2022-12-17T08:13:40.770Z,13.55
2022-12-17T08:16:26.581Z,14.02
2022-12-17T08:19:12.422Z,13.00
2022-12-17T08:21:58.340Z,12.95
2022-12-17T08:24:44.177Z,13.02
2022-12-17T08:27:30.266Z,12.60
2022-12-17T08:30:16.057Z,11.75
2022-12-17T08:33:02.072Z,13.27
2022-12-17T08:35:48.355Z,12.57
2022-12-17T08:38:33.957Z,12.27
2022-12-17T08:41:20.582Z,12.30
2022-12-17T08:44:06.516Z,13.20
2022-12-17T08:46:52.716Z,12.98
2022-12-17T08:49:38.670Z,12.38
2022-12-17T08:52:24.645Z,12.57
2022-12-17T08:55:10.610Z,13.20
2022-12-17T08:57:56.670Z,12.57
2022-12-17T09:00:42.488Z,13.68
2022-12-17T09:03:28.579Z,11.90
2022-12-17T09:06:14.753Z,15.50
2022-12-17T09:09:00.674Z,13.50
2022-12-17T09:11:46.661Z,12.88
2022-12-17T09:14:32.657Z,13.07
2022-12-17T09:17:18.634Z,11.90
2022-12-17T09:20:04.730Z,14.43
2022-12-17T09:22:50.694Z,12.32
2022-12-17T09:25:36.813Z,12.68
2022-12-17T09:28:23.300Z,13.10
2022-12-17T09:31:09.264Z,14.23
2022-12-17T09:33:55.402Z,12.30
2022-12-17T09:36:44.228Z,13.90
2022-12-17T09:39:32.318Z,13.25
2022-12-17T09:42:20.646Z,12.40
2022-12-17T09:45:21.410Z,13.70
2022-12-17T09:48:30.916Z,12.48
2022-12-17T09:51:18.407Z,13.63
2022-12-17T09:54:09.450Z,13.43
2022-12-17T09:56:55.864Z,14.07
2022-12-17T09:59:47.322Z,13.50
2022-12-17T10:02:44.233Z,13.40
2022-12-17T10:05:34.926Z,14.07
2022-12-17T10:08:23.264Z,13.52
2022-12-17T10:11:09.284Z,14.88
2022-12-17T10:13:55.219Z,13.45
2022-12-17T10:16:41.109Z,12.80
2022-12-17T10:19:32.132Z,14.45
2022-12-17T10:22:38.087Z,13.73
2022-12-17T10:25:26.003Z,14.25
2022-12-17T10:28:11.862Z,15.30
2022-12-17T10:31:12.160Z,15.82
2022-12-17T10:33:59.335Z,15.02
2022-12-17T10:36:45.740Z,14.82
2022-12-17T10:39:39.847Z,15.43
2022-12-17T10:42:46.338Z,15.07
2022-12-17T10:45:45.915Z,14.15
2022-12-17T10:48:37.315Z,14.88
2022-12-17T10:51:24.049Z,14.93
2022-12-17T10:54:11.471Z,14.55
2022-12-17T10:56:57.510Z,13.63
2022-12-17T10:59:52.643Z,13.85
2022-12-17T11:02:40.874Z,14.30
2022-12-17T11:05:34.355Z,14.88
2022-12-17T11:08:20.784Z,15.18
2022-12-17T11:11:06.891Z,15.27
2022-12-17T11:14:04.654Z,14.23
2022-12-17T11:16:53.004Z,13.75
2022-12-17T11:19:44.563Z,14.68
2022-12-17T11:22:40.457Z,14.02
2022-12-17T11:25:35.343Z,14.95
2022-12-17T11:28:24.770Z,13.68
2022-12-17T11:31:14.223Z,15.00
2022-12-17T11:34:05.680Z,13.73
2022-12-17T11:37:20.410Z,14.02
2022-12-17T11:40:16.119Z,13.95
2022-12-17T11:43:10.114Z,14.20
2022-12-17T11:46:12.905Z,14.55
2022-12-17T11:49:01.911Z,15.68
2022-12-17T11:52:10.724Z,15.73
2022-12-17T11:55:03.837Z,17.38
2022-12-17T11:57:56.944Z,17.90
2022-12-17T12:00:43.683Z,18.40
2022-12-17T12:03:48.074Z,16.95
2022-12-17T12:06:39.810Z,16.73
2022-12-17T12:09:25.802Z,17.15
2022-12-17T12:12:14.271Z,17.25
2022-12-17T12:15:18.714Z,17.15
2022-12-17T12:18:30.340Z,17.70
2022-12-17T12:21:18.941Z,16.73
2022-12-17T12:24:19.730Z,17.58
2022-12-17T12:27:18.531Z,17.15
2022-12-17T12:30:30.188Z,17.65
2022-12-17T12:33:29.909Z,17.25
2022-12-17T12:36:18.465Z,17.05
2022-12-17T12:39:04.684Z,17.17
2022-12-17T12:41:53.068Z,18.00
2022-12-17T12:44:48.328Z,18.98
2022-12-17T12:47:48.454Z,18.75
2022-12-17T12:50:47.167Z,17.75
2022-12-17T12:53:33.296Z,18.27
2022-12-17T12:56:19.319Z,18.70
2022-12-17T12:59:05.318Z,18.25
2022-12-17T13:01:52.611Z,18.05
2022-12-17T13:04:53.345Z,18.52
2022-12-17T13:07:24.912Z,19.17
2022-12-17T13:09:54.788Z,18.40
2022-12-17T13:12:40.660Z,19.33
2022-12-17T13:15:07.737Z,20.38
2022-12-17T13:17:45.263Z,20.55
2022-12-17T13:20:21.541Z,20.50
2022-12-17T13:23:05.673Z,20.10
2022-12-17T13:25:32.847Z,19.58
2022-12-17T13:28:00.113Z,21.23
2022-12-17T13:30:35.378Z,20.42
2022-12-17T13:33:14.655Z,20.73
2022-12-17T13:35:46.874Z,20.52
2022-12-17T13:38:32.345Z,19.85
2022-12-17T13:40:59.529Z,20.73
2022-12-17T13:43:31.732Z,20.02
2022-12-17T13:45:58.915Z,19.23
2022-12-17T13:48:27.879Z,20.05
2022-12-17T13:50:59.700Z,20.70
2022-12-17T13:53:27.766Z,20.90
2022-12-17T13:55:56.126Z,20.92
2022-12-17T13:58:24.686Z,21.17
2022-12-17T14:00:51.923Z,21.70
2022-12-17T14:03:37.398Z,20.50
2022-12-17T14:06:11.566Z,20.85
2022-12-17T14:08:39.295Z,20.58
2022-12-17T14:11:25.839Z,21.20
2022-12-17T14:13:53.140Z,22.20
2022-12-17T14:16:21.333Z,20.10
2022-12-17T14:18:53.004Z,20.00
2022-12-17T14:21:21.467Z,21.30
2022-12-17T14:23:50.179Z,21.17
2022-12-17T14:26:17.821Z,20.48
2022-12-17T14:28:52.719Z,21.48
2022-12-17T14:31:28.343Z,20.27
2022-12-17T14:34:02.206Z,20.52
2022-12-17T14:36:29.759Z,20.92
2022-12-17T14:38:57.109Z,21.35
2022-12-17T14:41:43.955Z,21.98
2022-12-17T14:44:21.741Z,21.55
2022-12-17T14:46:50.704Z,22.33
2022-12-17T14:49:19.822Z,21.55
2022-12-17T14:51:47.740Z,21.50
2022-12-17T14:54:14.881Z,22.70
2022-12-17T14:56:42.671Z,20.42
2022-12-17T14:59:28.752Z,22.05
2022-12-17T15:02:26.960Z,22.75
2022-12-17T15:04:57.352Z,21.85
2022-12-17T15:07:26.372Z,20.90
2022-12-17T15:09:55.090Z,21.77
2022-12-17T15:12:23.080Z,21.98
2022-12-17T15:14:50.251Z,22.40
2022-12-17T15:17:17.582Z,21.80
2022-12-17T15:19:44.967Z,22.08
2022-12-17T15:22:16.508Z,22.80
2022-12-17T15:24:44.463Z,22.80
2022-12-17T15:27:13.368Z,22.55
2022-12-17T15:29:40.793Z,22.65
2022-12-17T15:32:08.253Z,23.02
2022-12-17T15:34:35.495Z,23.70
2022-12-17T15:37:02.772Z,24.80
2022-12-17T15:39:30.067Z,23.40
2022-12-17T15:42:16.112Z,22.67
2022-12-17T15:44:43.272Z,22.95
2022-12-17T15:47:10.438Z,22.58
2022-12-17T15:49:37.679Z,25.00
2022-12-17T15:52:04.944Z,24.13
2022-12-17T15:54:32.188Z,24.27
2022-12-17T15:56:59.434Z,24.92
2022-12-17T15:59:26.848Z,25.42
2022-12-17T16:01:54.101Z,24.48
2022-12-17T16:04:24.840Z,23.48
2022-12-17T16:06:52.655Z,25.45
2022-12-17T16:09:24.247Z,26.08
2022-12-17T16:11:57.741Z,26.42
2022-12-17T16:14:25.019Z,25.52
2022-12-17T16:16:52.447Z,24.92
2022-12-17T16:19:22.428Z,25.38
2022-12-17T16:21:49.992Z,27.00
2022-12-17T16:24:17.220Z,25.75
2022-12-17T16:26:44.389Z,25.25
2022-12-17T16:29:11.717Z,25.88
2022-12-17T16:31:39.243Z,23.17
2022-12-17T16:34:10.156Z,23.08
2022-12-17T16:36:37.568Z,24.17
2022-12-17T16:39:05.295Z,24.08
2022-12-17T16:41:33.156Z,22.48
2022-12-17T16:44:01.013Z,23.42
2022-12-17T16:46:28.280Z,22.50
2022-12-17T16:48:56.689Z,20.77
2022-12-17T16:51:28.985Z,19.98
2022-12-17T16:53:57.355Z,20.15
2022-12-17T16:56:25.730Z,22.08
2022-12-17T16:58:52.901Z,19.42
2022-12-17T17:01:20.815Z,19.02
2022-12-17T17:03:48.488Z,18.92
2022-12-17T17:06:16.301Z,18.08
2022-12-17T17:08:43.579Z,18.05
2022-12-17T17:11:21.787Z,17.08
2022-12-17T17:13:49.966Z,18.98
2022-12-17T17:16:17.790Z,18.90
2022-12-17T17:18:45.083Z,20.17
2022-12-17T17:21:15.306Z,19.08
2022-12-17T17:23:42.864Z,18.60
2022-12-17T17:26:10.586Z,17.60
2022-12-17T17:28:38.098Z,18.02
2022-12-17T17:31:06.620Z,18.10
2022-12-17T17:33:35.309Z,17.40
2022-12-17T17:36:06.368Z,17.92
2022-12-17T17:38:35.101Z,19.05
2022-12-17T17:41:02.895Z,20.20
2022-12-17T17:43:30.037Z,18.83
2022-12-17T17:45:57.255Z,19.77
2022-12-17T17:48:24.414Z,20.75
2022-12-17T17:50:58.661Z,20.60
2022-12-17T17:53:25.986Z,20.77
2022-12-17T17:55:53.622Z,21.98
2022-12-17T17:58:21.220Z,20.83
2022-12-17T18:00:48.584Z,21.40
2022-12-17T18:03:15.856Z,22.23
2022-12-17T18:05:43.045Z,20.85
2022-12-17T18:08:10.463Z,23.02
2022-12-17T18:10:37.634Z,22.70
2022-12-17T18:13:34.079Z,21.27
2022-12-17T18:16:02.084Z,20.33
2022-12-17T18:18:29.393Z,23.23
2022-12-17T18:21:10.528Z,22.95
2022-12-17T18:23:38.254Z,22.40
2022-12-17T18:26:09.431Z,22.35
2022-12-17T18:28:37.479Z,23.80
2022-12-17T18:31:21.777Z,24.02
2022-12-17T18:33:51.158Z,22.08
2022-12-17T18:36:20.153Z,22.50
2022-12-17T18:38:47.754Z,21.52
2022-12-17T18:41:35.601Z,24.30
2022-12-17T18:44:04.731Z,23.85
2022-12-17T18:46:32.720Z,22.88
2022-12-17T18:49:01.206Z,23.00
2022-12-17T18:51:28.668Z,24.08
2022-12-17T18:53:59.877Z,23.48
2022-12-17T18:56:59.609Z,23.63
2022-12-17T18:59:15.117Z,24.27
2022-12-17T19:01:43.372Z,25.48
2022-12-17T19:04:12.080Z,24.15
2022-12-17T19:06:39.496Z,23.88
2022-12-17T19:09:07.944Z,22.75
2022-12-17T19:11:40.424Z,23.65
2022-12-17T19:14:10.659Z,21.10
2022-12-17T19:16:38.266Z,22.83
2022-12-17T19:19:06.042Z,22.50
2022-12-17T19:21:34.139Z,23.27
2022-12-17T19:24:02.640Z,23.55
2022-12-17T19:26:30.410Z,24.70
2022-12-17T19:28:58.822Z,24.80
2022-12-17T19:31:28.139Z,23.88
2022-12-17T19:33:56.626Z,25.02
2022-12-17T19:36:28.267Z,25.00
2022-12-17T19:38:56.538Z,26.35
2022-12-17T19:41:24.196Z,25.65
2022-12-17T19:43:55.552Z,26.85
2022-12-17T19:46:23.317Z,22.83
2022-12-17T19:48:51.333Z,23.85
2022-12-17T19:51:19.916Z,22.23
2022-12-17T19:53:47.182Z,22.58
2022-12-17T19:56:17.510Z,22.38
2022-12-17T19:58:45.349Z,22.60
2022-12-17T20:01:14.326Z,21.75
2022-12-17T20:03:42.798Z,21.65
2022-12-17T20:06:10.903Z,22.00
2022-12-17T20:08:38.329Z,21.25
2022-12-17T20:11:27.716Z,21.88
2022-12-17T20:13:55.223Z,20.98
2022-12-17T20:16:22.394Z,22.77
2022-12-17T20:18:49.639Z,21.83
2022-12-17T20:21:16.949Z,20.83
2022-12-17T20:23:46.545Z,23.17
2022-12-17T20:26:13.981Z,21.77
2022-12-17T20:28:41.422Z,20.55
2022-12-17T20:31:08.952Z,20.67
2022-12-17T20:33:36.306Z,19.15
2022-12-17T20:36:11.008Z,23.00
2022-12-17T20:38:39.209Z,19.27
2022-12-17T20:41:17.619Z,18.77
2022-12-17T20:43:44.799Z,18.83
2022-12-17T20:46:12.342Z,17.42
2022-12-17T20:48:40.783Z,17.63
2022-12-17T20:51:12.252Z,16.58
2022-12-17T20:53:39.951Z,15.88
2022-12-17T20:56:08.539Z,15.90
2022-12-17T20:58:36.424Z,16.33
2022-12-17T21:01:08.230Z,14.90
2022-12-17T21:03:35.538Z,14.77
2022-12-17T21:06:26.120Z,16.08
2022-12-17T21:08:54.059Z,14.65
2022-12-17T21:11:22.946Z,15.23
2022-12-17T21:13:50.115Z,16.58
2022-12-17T21:16:18.821Z,15.80
2022-12-17T21:18:46.182Z,16.33
2022-12-17T21:21:18.310Z,16.48
2022-12-17T21:23:46.470Z,16.70
2022-12-17T21:26:13.714Z,15.32
2022-12-17T21:28:42.411Z,15.32
2022-12-17T21:31:27.415Z,14.55
2022-12-17T21:36:22.791Z,15.40
2022-12-17T21:38:50.584Z,16.38
2022-12-17T21:41:19.194Z,14.82
2022-12-17T21:43:46.667Z,16.17
2022-12-17T21:46:14.290Z,16.48
2022-12-17T21:48:42.767Z,15.57
2022-12-17T21:51:11.950Z,14.98
2022-12-17T21:53:42.488Z,14.90
2022-12-17T21:56:11.495Z,15.55
2022-12-17T21:58:39.860Z,16.00
2022-12-17T22:01:18.670Z,17.48
2022-12-17T22:03:48.414Z,15.98
2022-12-17T22:06:22.065Z,16.67
2022-12-17T22:08:51.078Z,16.55
2022-12-17T22:11:22.863Z,18.48
2022-12-17T22:14:18.890Z,17.67
2022-12-17T22:16:49.665Z,15.77
2022-12-17T22:19:21.799Z,17.30
2022-12-17T22:21:50.422Z,15.02
2022-12-17T22:24:18.562Z,15.73
2022-12-17T22:26:46.347Z,16.05
2022-12-17T22:29:33.858Z,17.05
2022-12-17T22:32:19.847Z,17.25
2022-12-17T22:35:37.433Z,17.83
2022-12-17T22:41:17.877Z,18.15
2022-12-17T22:42:13.056Z,16.40
2022-12-17T22:44:45.959Z,18.15
2022-12-17T22:46:19.772Z,17.20
2022-12-17T22:48:47.274Z,17.35
2022-12-17T22:51:20.569Z,17.23
2022-12-17T22:53:53.851Z,17.63
2022-12-17T22:56:41.249Z,18.30
2022-12-17T22:59:09.660Z,16.42
2022-12-17T23:01:36.824Z,16.10
2022-12-17T23:04:04.585Z,17.70
2022-12-17T23:06:31.843Z,17.63
2022-12-17T23:08:59.099Z,17.17
2022-12-17T23:11:27.975Z,18.15
2022-12-17T23:13:55.204Z,15.90
2022-12-17T23:16:22.477Z,17.83
2022-12-17T23:18:50.409Z,17.30
2022-12-17T23:21:19.979Z,16.08
2022-12-17T23:23:47.418Z,17.65
2022-12-17T23:26:16.352Z,16.33
2022-12-17T23:28:44.175Z,17.52
2022-12-17T23:31:13.103Z,17.40
2022-12-17T23:33:41.127Z,17.73
2022-12-17T23:36:13.479Z,17.10
2022-12-17T23:38:40.692Z,17.90
2022-12-17T23:41:09.709Z,17.05
2022-12-17T23:43:37.597Z,16.60
2022-12-17T23:46:05.422Z,16.23
2022-12-17T23:48:33.909Z,15.70
2022-12-17T23:51:01.727Z,15.27
2022-12-17T23:53:29.754Z,16.38
2022-12-17T23:55:56.850Z,17.48
2022-12-17T23:58:23.990Z,19.48
